sensor_id;sensor_type;location;lat;lon;timestamp;temperature;humidity
74792;SHT30;63319;46.046;17.802;2023-04-06T00:00:06;21.03;32.88
74792;SHT30;63319;46.046;17.802;2023-04-06T00:03:12;21.02;32.86
74792;SHT30;63319;46.046;17.802;2023-04-06T00:06:15;21.00;32.44
74792;SHT30;63319;46.046;17.802;2023-04-06T00:09:19;21.00;32.89
74792;SHT30;63319;46.046;17.802;2023-04-06T00:12:22;21.02;32.89
74792;SHT30;63319;46.046;17.802;2023-04-06T00:15:28;21.02;32.85
74792;SHT30;63319;46.046;17.802;2023-04-06T00:18:31;20.96;32.94
74792;SHT30;63319;46.046;17.802;2023-04-06T00:21:34;20.98;32.61
74792;SHT30;63319;46.046;17.802;2023-04-06T00:24:36;20.96;33.09
74792;SHT30;63319;46.046;17.802;2023-04-06T00:27:39;20.95;33.07
74792;SHT30;63319;46.046;17.802;2023-04-06T00:30:42;20.94;33.18
74792;SHT30;63319;46.046;17.802;2023-04-06T00:33:45;20.96;32.63
74792;SHT30;63319;46.046;17.802;2023-04-06T00:36:49;20.96;32.86
74792;SHT30;63319;46.046;17.802;2023-04-06T00:39:52;20.95;33.07
74792;SHT30;63319;46.046;17.802;2023-04-06T00:42:55;20.96;32.86
74792;SHT30;63319;46.046;17.802;2023-04-06T00:45:58;20.98;32.66
74792;SHT30;63319;46.046;17.802;2023-04-06T00:49:01;20.94;32.98
74792;SHT30;63319;46.046;17.802;2023-04-06T00:52:03;20.94;32.85
74792;SHT30;63319;46.046;17.802;2023-04-06T00:55:07;20.92;32.89
74792;SHT30;63319;46.046;17.802;2023-04-06T00:58:15;20.92;32.65
74792;SHT30;63319;46.046;17.802;2023-04-06T01:01:24;20.95;32.87
74792;SHT30;63319;46.046;17.802;2023-04-06T01:04:30;20.94;32.68
74792;SHT30;63319;46.046;17.802;2023-04-06T01:07:34;20.91;33.07
74792;SHT30;63319;46.046;17.802;2023-04-06T01:11:03;20.92;32.73
74792;SHT30;63319;46.046;17.802;2023-04-06T01:14:06;20.94;32.55
74792;SHT30;63319;46.046;17.802;2023-04-06T01:17:20;20.91;32.59
74792;SHT30;63319;46.046;17.802;2023-04-06T01:20:24;20.89;32.87
74792;SHT30;63319;46.046;17.802;2023-04-06T01:23:27;20.92;32.63
74792;SHT30;63319;46.046;17.802;2023-04-06T01:26:30;20.89;32.57
74792;SHT30;63319;46.046;17.802;2023-04-06T01:29:34;20.91;32.73
74792;SHT30;63319;46.046;17.802;2023-04-06T01:32:40;20.88;33.07
74792;SHT30;63319;46.046;17.802;2023-04-06T01:35:45;20.89;33.02
74792;SHT30;63319;46.046;17.802;2023-04-06T01:38:52;20.89;33.01
74792;SHT30;63319;46.046;17.802;2023-04-06T01:42:04;20.85;32.77
74792;SHT30;63319;46.046;17.802;2023-04-06T01:45:09;20.87;33.13
74792;SHT30;63319;46.046;17.802;2023-04-06T01:48:12;20.89;33.34
74792;SHT30;63319;46.046;17.802;2023-04-06T01:51:15;20.89;33.10
74792;SHT30;63319;46.046;17.802;2023-04-06T01:54:32;20.88;33.15
74792;SHT30;63319;46.046;17.802;2023-04-06T01:57:47;20.89;33.13
74792;SHT30;63319;46.046;17.802;2023-04-06T02:01:02;20.85;32.93
74792;SHT30;63319;46.046;17.802;2023-04-06T02:04:15;20.84;33.35
74792;SHT30;63319;46.046;17.802;2023-04-06T02:07:21;20.85;33.44
74792;SHT30;63319;46.046;17.802;2023-04-06T02:10:24;20.84;32.96
74792;SHT30;63319;46.046;17.802;2023-04-06T02:13:27;20.82;32.77
74792;SHT30;63319;46.046;17.802;2023-04-06T02:16:30;20.82;33.41
74792;SHT30;63319;46.046;17.802;2023-04-06T02:19:34;20.82;32.86
74792;SHT30;63319;46.046;17.802;2023-04-06T02:22:37;20.81;33.45
74792;SHT30;63319;46.046;17.802;2023-04-06T02:25:43;20.82;33.31
74792;SHT30;63319;46.046;17.802;2023-04-06T02:28:46;20.82;33.32
74792;SHT30;63319;46.046;17.802;2023-04-06T02:31:53;20.81;32.86
74792;SHT30;63319;46.046;17.802;2023-04-06T02:34:57;20.77;33.14
74792;SHT30;63319;46.046;17.802;2023-04-06T02:38:00;20.78;33.46
74792;SHT30;63319;46.046;17.802;2023-04-06T02:41:03;20.77;33.10
74792;SHT30;63319;46.046;17.802;2023-04-06T02:44:08;20.77;33.09
74792;SHT30;63319;46.046;17.802;2023-04-06T02:47:20;20.74;33.32
74792;SHT30;63319;46.046;17.802;2023-04-06T02:50:26;20.74;33.30
74792;SHT30;63319;46.046;17.802;2023-04-06T02:53:34;20.74;32.78
74792;SHT30;63319;46.046;17.802;2023-04-06T02:56:37;20.74;33.18
74792;SHT30;63319;46.046;17.802;2023-04-06T02:59:40;20.71;33.21
74792;SHT30;63319;46.046;17.802;2023-04-06T03:02:50;20.71;33.31
74792;SHT30;63319;46.046;17.802;2023-04-06T03:05:53;20.69;33.57
74792;SHT30;63319;46.046;17.802;2023-04-06T03:09:02;20.72;33.18
74792;SHT30;63319;46.046;17.802;2023-04-06T03:12:07;20.72;33.44
74792;SHT30;63319;46.046;17.802;2023-04-06T03:15:31;20.69;33.53
74792;SHT30;63319;46.046;17.802;2023-04-06T03:18:45;20.65;33.22
74792;SHT30;63319;46.046;17.802;2023-04-06T03:21:49;20.67;33.28
74792;SHT30;63319;46.046;17.802;2023-04-06T03:24:53;20.68;33.32
74792;SHT30;63319;46.046;17.802;2023-04-06T03:27:56;20.67;33.10
74792;SHT30;63319;46.046;17.802;2023-04-06T03:30:59;20.67;32.89
74792;SHT30;63319;46.046;17.802;2023-04-06T03:34:21;20.68;33.47
74792;SHT30;63319;46.046;17.802;2023-04-06T03:37:24;20.63;33.14
74792;SHT30;63319;46.046;17.802;2023-04-06T03:40:31;20.67;32.99
74792;SHT30;63319;46.046;17.802;2023-04-06T03:43:34;20.63;33.49
74792;SHT30;63319;46.046;17.802;2023-04-06T03:46:36;20.65;33.17
74792;SHT30;63319;46.046;17.802;2023-04-06T03:49:39;20.65;33.23
74792;SHT30;63319;46.046;17.802;2023-04-06T03:52:45;20.63;33.48
74792;SHT30;63319;46.046;17.802;2023-04-06T03:55:48;20.60;33.32
74792;SHT30;63319;46.046;17.802;2023-04-06T03:58:50;20.60;33.27
74792;SHT30;63319;46.046;17.802;2023-04-06T04:01:56;20.58;33.17
74792;SHT30;63319;46.046;17.802;2023-04-06T04:05:02;20.60;33.24
74792;SHT30;63319;46.046;17.802;2023-04-06T04:08:05;20.61;33.40
74792;SHT30;63319;46.046;17.802;2023-04-06T04:11:08;20.60;33.45
74792;SHT30;63319;46.046;17.802;2023-04-06T04:14:11;20.57;33.27
74792;SHT30;63319;46.046;17.802;2023-04-06T04:17:14;20.58;33.43
74792;SHT30;63319;46.046;17.802;2023-04-06T04:20:17;20.55;33.29
74792;SHT30;63319;46.046;17.802;2023-04-06T04:23:20;20.54;33.53
74792;SHT30;63319;46.046;17.802;2023-04-06T04:26:22;20.55;33.71
74792;SHT30;63319;46.046;17.802;2023-04-06T04:29:25;20.55;33.56
74792;SHT30;63319;46.046;17.802;2023-04-06T04:32:32;20.57;33.45
74792;SHT30;63319;46.046;17.802;2023-04-06T04:35:37;20.58;33.48
74792;SHT30;63319;46.046;17.802;2023-04-06T04:38:41;20.57;32.87
74792;SHT30;63319;46.046;17.802;2023-04-06T04:41:45;20.54;33.41
74792;SHT30;63319;46.046;17.802;2023-04-06T04:44:48;20.54;33.50
74792;SHT30;63319;46.046;17.802;2023-04-06T04:47:59;20.55;33.63
74792;SHT30;63319;46.046;17.802;2023-04-06T04:51:10;20.57;33.39
74792;SHT30;63319;46.046;17.802;2023-04-06T04:54:24;20.57;33.19
74792;SHT30;63319;46.046;17.802;2023-04-06T04:57:27;20.55;33.50
74792;SHT30;63319;46.046;17.802;2023-04-06T05:00:30;20.57;33.70
74792;SHT30;63319;46.046;17.802;2023-04-06T05:03:35;20.57;33.50
74792;SHT30;63319;46.046;17.802;2023-04-06T05:06:43;20.58;32.81
74792;SHT30;63319;46.046;17.802;2023-04-06T05:09:46;20.60;33.52
74792;SHT30;63319;46.046;17.802;2023-04-06T05:12:49;20.61;33.25
74792;SHT30;63319;46.046;17.802;2023-04-06T05:15:52;20.61;33.34
74792;SHT30;63319;46.046;17.802;2023-04-06T05:19:00;20.65;33.03
74792;SHT30;63319;46.046;17.802;2023-04-06T05:22:11;20.63;33.35
74792;SHT30;63319;46.046;17.802;2023-04-06T05:25:18;20.64;33.44
74792;SHT30;63319;46.046;17.802;2023-04-06T05:28:25;20.64;32.84
74792;SHT30;63319;46.046;17.802;2023-04-06T05:31:29;20.61;33.35
74792;SHT30;63319;46.046;17.802;2023-04-06T05:34:32;20.60;33.52
74792;SHT30;63319;46.046;17.802;2023-04-06T05:37:39;20.64;33.48
74792;SHT30;63319;46.046;17.802;2023-04-06T05:40:42;20.69;33.17
74792;SHT30;63319;46.046;17.802;2023-04-06T05:43:49;20.68;33.16
74792;SHT30;63319;46.046;17.802;2023-04-06T05:46:52;20.75;33.50
74792;SHT30;63319;46.046;17.802;2023-04-06T05:49:55;20.77;33.29
74792;SHT30;63319;46.046;17.802;2023-04-06T05:53:07;20.84;32.75
74792;SHT30;63319;46.046;17.802;2023-04-06T05:56:15;20.85;33.11
74792;SHT30;63319;46.046;17.802;2023-04-06T05:59:19;20.91;33.43
74792;SHT30;63319;46.046;17.802;2023-04-06T06:02:23;20.96;33.00
74792;SHT30;63319;46.046;17.802;2023-04-06T06:05:28;21.02;33.28
74792;SHT30;63319;46.046;17.802;2023-04-06T06:08:37;21.05;33.30
74792;SHT30;63319;46.046;17.802;2023-04-06T06:11:46;21.10;33.12
74792;SHT30;63319;46.046;17.802;2023-04-06T06:14:51;21.16;33.25
74792;SHT30;63319;46.046;17.802;2023-04-06T06:17:55;21.29;32.71
74792;SHT30;63319;46.046;17.802;2023-04-06T06:21:00;21.32;33.14
74792;SHT30;63319;46.046;17.802;2023-04-06T06:24:03;21.37;33.22
74792;SHT30;63319;46.046;17.802;2023-04-06T06:27:06;21.46;33.09
74792;SHT30;63319;46.046;17.802;2023-04-06T06:30:12;21.51;33.06
74792;SHT30;63319;46.046;17.802;2023-04-06T06:33:16;21.60;32.91
74792;SHT30;63319;46.046;17.802;2023-04-06T06:36:20;21.65;32.83
74792;SHT30;63319;46.046;17.802;2023-04-06T06:39:24;21.68;32.72
74792;SHT30;63319;46.046;17.802;2023-04-06T06:42:28;21.73;32.72
74792;SHT30;63319;46.046;17.802;2023-04-06T06:45:43;21.80;32.45
74792;SHT30;63319;46.046;17.802;2023-04-06T06:48:48;21.84;32.53
74792;SHT30;63319;46.046;17.802;2023-04-06T06:51:51;21.88;32.13
74792;SHT30;63319;46.046;17.802;2023-04-06T06:54:54;21.95;32.38
74792;SHT30;63319;46.046;17.802;2023-04-06T06:57:59;22.04;32.28
74792;SHT30;63319;46.046;17.802;2023-04-06T07:01:02;22.08;32.24
74792;SHT30;63319;46.046;17.802;2023-04-06T07:04:06;22.16;32.06
74792;SHT30;63319;46.046;17.802;2023-04-06T07:07:10;22.25;32.04
74792;SHT30;63319;46.046;17.802;2023-04-06T07:10:14;22.33;31.92
74792;SHT30;63319;46.046;17.802;2023-04-06T07:13:16;22.41;31.28
74792;SHT30;63319;46.046;17.802;2023-04-06T07:16:32;22.48;31.23
74792;SHT30;63319;46.046;17.802;2023-04-06T07:19:35;22.56;31.30
74792;SHT30;63319;46.046;17.802;2023-04-06T07:22:39;22.64;31.13
74792;SHT30;63319;46.046;17.802;2023-04-06T07:25:42;22.74;30.69
74792;SHT30;63319;46.046;17.802;2023-04-06T07:28:45;22.87;30.90
74792;SHT30;63319;46.046;17.802;2023-04-06T07:31:48;22.97;30.77
74792;SHT30;63319;46.046;17.802;2023-04-06T07:34:52;23.11;30.96
74792;SHT30;63319;46.046;17.802;2023-04-06T07:37:54;23.22;30.34
74792;SHT30;63319;46.046;17.802;2023-04-06T07:40:58;23.35;29.80
74792;SHT30;63319;46.046;17.802;2023-04-06T07:44:01;23.48;29.43
74792;SHT30;63319;46.046;17.802;2023-04-06T07:47:03;23.61;29.16
74792;SHT30;63319;46.046;17.802;2023-04-06T07:50:07;23.77;29.38
74792;SHT30;63319;46.046;17.802;2023-04-06T07:53:10;23.92;28.86
74792;SHT30;63319;46.046;17.802;2023-04-06T07:56:14;24.09;28.37
74792;SHT30;63319;46.046;17.802;2023-04-06T07:59:17;24.30;28.72
74792;SHT30;63319;46.046;17.802;2023-04-06T08:02:20;24.50;27.99
74792;SHT30;63319;46.046;17.802;2023-04-06T08:05:23;24.71;27.93
74792;SHT30;63319;46.046;17.802;2023-04-06T08:08:26;24.91;28.45
74792;SHT30;63319;46.046;17.802;2023-04-06T08:11:29;25.13;28.07
74792;SHT30;63319;46.046;17.802;2023-04-06T08:14:32;25.50;27.90
74792;SHT30;63319;46.046;17.802;2023-04-06T08:17:35;25.99;27.55
74792;SHT30;63319;46.046;17.802;2023-04-06T08:20:39;26.44;26.99
74792;SHT30;63319;46.046;17.802;2023-04-06T08:23:42;26.87;26.13
74792;SHT30;63319;46.046;17.802;2023-04-06T08:26:44;27.15;26.08
74792;SHT30;63319;46.046;17.802;2023-04-06T08:29:48;27.39;25.76
74792;SHT30;63319;46.046;17.802;2023-04-06T08:32:52;27.52;25.68
74792;SHT30;63319;46.046;17.802;2023-04-06T08:35:55;27.60;25.60
74792;SHT30;63319;46.046;17.802;2023-04-06T08:38:59;27.74;25.44
74792;SHT30;63319;46.046;17.802;2023-04-06T08:42:02;27.93;25.18
74792;SHT30;63319;46.046;17.802;2023-04-06T08:45:06;28.17;24.98
74792;SHT30;63319;46.046;17.802;2023-04-06T08:48:09;28.22;24.93
74792;SHT30;63319;46.046;17.802;2023-04-06T08:51:12;28.37;24.77
74792;SHT30;63319;46.046;17.802;2023-04-06T08:54:15;28.55;24.61
74792;SHT30;63319;46.046;17.802;2023-04-06T08:57:18;28.72;24.44
74792;SHT30;63319;46.046;17.802;2023-04-06T09:00:22;28.83;24.40
74792;SHT30;63319;46.046;17.802;2023-04-06T09:03:28;28.83;24.40
74792;SHT30;63319;46.046;17.802;2023-04-06T09:06:32;28.86;24.37
74792;SHT30;63319;46.046;17.802;2023-04-06T09:09:35;28.91;24.39
74792;SHT30;63319;46.046;17.802;2023-04-06T09:12:37;29.02;24.22
74792;SHT30;63319;46.046;17.802;2023-04-06T09:15:40;29.02;24.32
74792;SHT30;63319;46.046;17.802;2023-04-06T09:18:44;29.03;24.29
74792;SHT30;63319;46.046;17.802;2023-04-06T09:21:47;29.02;24.36
74792;SHT30;63319;46.046;17.802;2023-04-06T09:24:52;29.02;24.35
74792;SHT30;63319;46.046;17.802;2023-04-06T09:27:59;29.07;24.30
74792;SHT30;63319;46.046;17.802;2023-04-06T09:31:02;29.09;24.29
74792;SHT30;63319;46.046;17.802;2023-04-06T09:34:05;29.07;24.34
74792;SHT30;63319;46.046;17.802;2023-04-06T09:37:17;29.19;24.29
74792;SHT30;63319;46.046;17.802;2023-04-06T09:40:21;29.12;24.36
74792;SHT30;63319;46.046;17.802;2023-04-06T09:43:26;29.07;24.49
74792;SHT30;63319;46.046;17.802;2023-04-06T09:46:31;29.13;24.42
74792;SHT30;63319;46.046;17.802;2023-04-06T09:49:59;29.13;24.45
74792;SHT30;63319;46.046;17.802;2023-04-06T09:53:03;29.22;24.41
74792;SHT30;63319;46.046;17.802;2023-04-06T09:56:08;29.20;24.42
74792;SHT30;63319;46.046;17.802;2023-04-06T09:59:26;29.22;24.39
74792;SHT30;63319;46.046;17.802;2023-04-06T10:06:00;29.14;24.55
74792;SHT30;63319;46.046;17.802;2023-04-06T10:09:04;29.13;24.61
74792;SHT30;63319;46.046;17.802;2023-04-06T10:12:10;29.17;24.53
74792;SHT30;63319;46.046;17.802;2023-04-06T10:15:14;29.27;24.48
74792;SHT30;63319;46.046;17.802;2023-04-06T10:18:17;29.04;24.64
74792;SHT30;63319;46.046;17.802;2023-04-06T10:21:23;29.10;24.66
74792;SHT30;63319;46.046;17.802;2023-04-06T10:24:26;29.10;24.72
74792;SHT30;63319;46.046;17.802;2023-04-06T10:27:30;29.14;24.66
74792;SHT30;63319;46.046;17.802;2023-04-06T10:30:34;29.13;24.72
74792;SHT30;63319;46.046;17.802;2023-04-06T10:33:37;29.02;24.79
74792;SHT30;63319;46.046;17.802;2023-04-06T10:36:40;29.16;24.83
74792;SHT30;63319;46.046;17.802;2023-04-06T10:39:46;28.85;25.16
74792;SHT30;63319;46.046;17.802;2023-04-06T10:42:49;28.96;25.01
74792;SHT30;63319;46.046;17.802;2023-04-06T10:45:57;28.92;25.07
74792;SHT30;63319;46.046;17.802;2023-04-06T10:49:12;28.86;25.13
74792;SHT30;63319;46.046;17.802;2023-04-06T10:52:15;29.02;25.05
74792;SHT30;63319;46.046;17.802;2023-04-06T10:55:19;28.99;25.06
74792;SHT30;63319;46.046;17.802;2023-04-06T10:58:26;29.12;24.99
74792;SHT30;63319;46.046;17.802;2023-04-06T11:01:30;29.10;24.96
74792;SHT30;63319;46.046;17.802;2023-04-06T11:04:33;28.88;25.21
74792;SHT30;63319;46.046;17.802;2023-04-06T11:07:36;29.03;25.02
74792;SHT30;63319;46.046;17.802;2023-04-06T11:10:39;29.16;24.96
74792;SHT30;63319;46.046;17.802;2023-04-06T11:14:04;29.23;24.84
74792;SHT30;63319;46.046;17.802;2023-04-06T11:17:06;29.29;24.76
74792;SHT30;63319;46.046;17.802;2023-04-06T11:20:10;29.30;24.81
74792;SHT30;63319;46.046;17.802;2023-04-06T11:23:22;29.20;24.95
74792;SHT30;63319;46.046;17.802;2023-04-06T11:26:25;29.13;24.99
74792;SHT30;63319;46.046;17.802;2023-04-06T11:29:29;28.99;25.16
74792;SHT30;63319;46.046;17.802;2023-04-06T11:32:40;28.78;25.38
74792;SHT30;63319;46.046;17.802;2023-04-06T11:35:44;28.79;25.43
74792;SHT30;63319;46.046;17.802;2023-04-06T11:38:49;28.91;25.28
74792;SHT30;63319;46.046;17.802;2023-04-06T11:41:58;28.99;25.22
74792;SHT30;63319;46.046;17.802;2023-04-06T11:45:01;28.99;25.16
74792;SHT30;63319;46.046;17.802;2023-04-06T11:48:03;28.96;25.16
74792;SHT30;63319;46.046;17.802;2023-04-06T11:51:07;28.88;25.36
74792;SHT30;63319;46.046;17.802;2023-04-06T11:54:09;28.72;25.47
74792;SHT30;63319;46.046;17.802;2023-04-06T11:57:13;28.69;25.53
74792;SHT30;63319;46.046;17.802;2023-04-06T12:00:16;28.71;25.50
74792;SHT30;63319;46.046;17.802;2023-04-06T12:03:19;28.65;25.59
74792;SHT30;63319;46.046;17.802;2023-04-06T12:06:22;28.62;25.54
74792;SHT30;63319;46.046;17.802;2023-04-06T12:09:25;28.58;25.65
74792;SHT30;63319;46.046;17.802;2023-04-06T12:12:28;28.52;25.66
74792;SHT30;63319;46.046;17.802;2023-04-06T12:15:31;28.47;25.75
74792;SHT30;63319;46.046;17.802;2023-04-06T12:18:34;28.35;25.91
74792;SHT30;63319;46.046;17.802;2023-04-06T12:21:36;28.29;25.98
74792;SHT30;63319;46.046;17.802;2023-04-06T12:24:40;28.28;26.01
74792;SHT30;63319;46.046;17.802;2023-04-06T12:27:42;28.13;26.19
74792;SHT30;63319;46.046;17.802;2023-04-06T12:30:47;28.04;26.28
74792;SHT30;63319;46.046;17.802;2023-04-06T12:33:50;27.96;26.46
74792;SHT30;63319;46.046;17.802;2023-04-06T12:36:53;27.79;26.60
74792;SHT30;63319;46.046;17.802;2023-04-06T12:39:56;27.67;26.75
74792;SHT30;63319;46.046;17.802;2023-04-06T12:42:59;27.67;26.77
74792;SHT30;63319;46.046;17.802;2023-04-06T12:46:02;27.56;26.91
74792;SHT30;63319;46.046;17.802;2023-04-06T12:49:05;27.46;27.01
74792;SHT30;63319;46.046;17.802;2023-04-06T12:52:08;27.48;27.05
74792;SHT30;63319;46.046;17.802;2023-04-06T12:55:13;27.35;27.24
74792;SHT30;63319;46.046;17.802;2023-04-06T12:58:16;27.29;27.29
74792;SHT30;63319;46.046;17.802;2023-04-06T13:01:21;27.28;27.33
74792;SHT30;63319;46.046;17.802;2023-04-06T13:04:24;27.25;27.28
74792;SHT30;63319;46.046;17.802;2023-04-06T13:07:27;27.21;27.43
74792;SHT30;63319;46.046;17.802;2023-04-06T13:10:32;27.16;27.47
74792;SHT30;63319;46.046;17.802;2023-04-06T13:13:36;27.08;27.54
74792;SHT30;63319;46.046;17.802;2023-04-06T13:16:39;27.04;27.64
74792;SHT30;63319;46.046;17.802;2023-04-06T13:19:42;26.98;27.63
74792;SHT30;63319;46.046;17.802;2023-04-06T13:22:44;26.91;27.73
74792;SHT30;63319;46.046;17.802;2023-04-06T13:25:47;26.88;27.82
74792;SHT30;63319;46.046;17.802;2023-04-06T13:28:50;26.80;27.87
74792;SHT30;63319;46.046;17.802;2023-04-06T13:31:53;26.74;28.00
74792;SHT30;63319;46.046;17.802;2023-04-06T13:34:56;26.70;28.00
74792;SHT30;63319;46.046;17.802;2023-04-06T13:38:00;26.67;28.06
74792;SHT30;63319;46.046;17.802;2023-04-06T13:41:03;26.59;28.19
74792;SHT30;63319;46.046;17.802;2023-04-06T13:44:07;26.53;28.29
74792;SHT30;63319;46.046;17.802;2023-04-06T13:47:09;26.46;28.30
74792;SHT30;63319;46.046;17.802;2023-04-06T13:50:12;26.39;28.40
74792;SHT30;63319;46.046;17.802;2023-04-06T13:53:16;26.32;28.51
74792;SHT30;63319;46.046;17.802;2023-04-06T13:56:19;26.19;28.67
74792;SHT30;63319;46.046;17.802;2023-04-06T13:59:22;26.16;28.72
74792;SHT30;63319;46.046;17.802;2023-04-06T14:02:25;26.11;28.74
74792;SHT30;63319;46.046;17.802;2023-04-06T14:05:33;26.12;28.77
74792;SHT30;63319;46.046;17.802;2023-04-06T14:08:36;26.05;28.86
74792;SHT30;63319;46.046;17.802;2023-04-06T14:11:39;26.01;28.97
74792;SHT30;63319;46.046;17.802;2023-04-06T14:14:41;25.95;28.94
74792;SHT30;63319;46.046;17.802;2023-04-06T14:17:44;25.89;29.00
74792;SHT30;63319;46.046;17.802;2023-04-06T14:20:55;25.91;29.06
74792;SHT30;63319;46.046;17.802;2023-04-06T14:23:58;25.89;29.07
74792;SHT30;63319;46.046;17.802;2023-04-06T14:27:01;25.91;29.06
74792;SHT30;63319;46.046;17.802;2023-04-06T14:30:05;25.89;29.04
74792;SHT30;63319;46.046;17.802;2023-04-06T14:33:11;25.85;29.11
74792;SHT30;63319;46.046;17.802;2023-04-06T14:36:14;25.82;29.15
74792;SHT30;63319;46.046;17.802;2023-04-06T14:39:17;25.82;29.15
74792;SHT30;63319;46.046;17.802;2023-04-06T14:42:20;25.81;29.18
74792;SHT30;63319;46.046;17.802;2023-04-06T14:45:23;25.75;29.22
74792;SHT30;63319;46.046;17.802;2023-04-06T14:48:27;25.71;29.28
74792;SHT30;63319;46.046;17.802;2023-04-06T14:51:30;25.67;29.36
74792;SHT30;63319;46.046;17.802;2023-04-06T14:54:33;25.57;29.43
74792;SHT30;63319;46.046;17.802;2023-04-06T14:57:36;25.53;29.45
74792;SHT30;63319;46.046;17.802;2023-04-06T15:00:39;25.50;29.53
74792;SHT30;63319;46.046;17.802;2023-04-06T15:03:42;25.43;29.64
74792;SHT30;63319;46.046;17.802;2023-04-06T15:06:46;25.36;29.67
74792;SHT30;63319;46.046;17.802;2023-04-06T15:09:48;25.31;29.74
74792;SHT30;63319;46.046;17.802;2023-04-06T15:12:52;25.27;29.79
74792;SHT30;63319;46.046;17.802;2023-04-06T15:15:54;25.23;29.89
74792;SHT30;63319;46.046;17.802;2023-04-06T15:18:58;25.20;29.91
74792;SHT30;63319;46.046;17.802;2023-04-06T15:22:01;25.18;29.86
74792;SHT30;63319;46.046;17.802;2023-04-06T15:25:04;25.12;30.00
74792;SHT30;63319;46.046;17.802;2023-04-06T15:28:07;25.10;30.05
74792;SHT30;63319;46.046;17.802;2023-04-06T15:31:15;25.06;30.14
74792;SHT30;63319;46.046;17.802;2023-04-06T15:34:38;25.03;30.14
74792;SHT30;63319;46.046;17.802;2023-04-06T15:37:41;24.98;30.20
74792;SHT30;63319;46.046;17.802;2023-04-06T15:40:47;24.95;30.21
74792;SHT30;63319;46.046;17.802;2023-04-06T15:43:50;24.92;30.29
74792;SHT30;63319;46.046;17.802;2023-04-06T15:46:53;24.85;30.33
74792;SHT30;63319;46.046;17.802;2023-04-06T15:49:56;24.79;30.47
74792;SHT30;63319;46.046;17.802;2023-04-06T15:52:58;24.73;30.54
74792;SHT30;63319;46.046;17.802;2023-04-06T15:56:03;24.69;30.60
74792;SHT30;63319;46.046;17.802;2023-04-06T15:59:07;24.64;30.64
74792;SHT30;63319;46.046;17.802;2023-04-06T16:02:10;24.60;30.73
74792;SHT30;63319;46.046;17.802;2023-04-06T16:05:14;24.54;30.83
74792;SHT30;63319;46.046;17.802;2023-04-06T16:08:17;24.47;30.90
74792;SHT30;63319;46.046;17.802;2023-04-06T16:11:20;24.41;30.90
74792;SHT30;63319;46.046;17.802;2023-04-06T16:14:23;24.40;31.09
74792;SHT30;63319;46.046;17.802;2023-04-06T16:17:26;24.34;31.12
74792;SHT30;63319;46.046;17.802;2023-04-06T16:20:29;24.31;31.17
74792;SHT30;63319;46.046;17.802;2023-04-06T16:23:33;24.25;31.31
74792;SHT30;63319;46.046;17.802;2023-04-06T16:26:36;24.20;31.29
74792;SHT30;63319;46.046;17.802;2023-04-06T16:29:42;24.17;31.44
74792;SHT30;63319;46.046;17.802;2023-04-06T16:32:45;24.14;31.46
74792;SHT30;63319;46.046;17.802;2023-04-06T16:35:50;24.09;31.53
74792;SHT30;63319;46.046;17.802;2023-04-06T16:38:57;24.04;31.58
74792;SHT30;63319;46.046;17.802;2023-04-06T16:42:01;24.02;31.73
74792;SHT30;63319;46.046;17.802;2023-04-06T16:45:13;23.97;31.77
74792;SHT30;63319;46.046;17.802;2023-04-06T16:48:17;23.93;31.85
74792;SHT30;63319;46.046;17.802;2023-04-06T16:51:19;23.87;31.83
74792;SHT30;63319;46.046;17.802;2023-04-06T16:54:23;23.85;31.92
74792;SHT30;63319;46.046;17.802;2023-04-06T16:57:25;23.79;31.99
74792;SHT30;63319;46.046;17.802;2023-04-06T17:00:31;23.79;32.02
74792;SHT30;63319;46.046;17.802;2023-04-06T17:03:34;23.75;32.13
74792;SHT30;63319;46.046;17.802;2023-04-06T17:06:37;23.69;32.08
74792;SHT30;63319;46.046;17.802;2023-04-06T17:09:39;23.63;32.15
74792;SHT30;63319;46.046;17.802;2023-04-06T17:12:44;23.61;32.24
74792;SHT30;63319;46.046;17.802;2023-04-06T17:15:47;23.59;32.10
74792;SHT30;63319;46.046;17.802;2023-04-06T17:18:51;23.54;32.31
74792;SHT30;63319;46.046;17.802;2023-04-06T17:21:54;23.51;32.22
74792;SHT30;63319;46.046;17.802;2023-04-06T17:24:57;23.48;32.34
74792;SHT30;63319;46.046;17.802;2023-04-06T17:28:00;23.44;32.42
74792;SHT30;63319;46.046;17.802;2023-04-06T17:31:09;23.41;32.46
74792;SHT30;63319;46.046;17.802;2023-04-06T17:34:12;23.37;32.46
74792;SHT30;63319;46.046;17.802;2023-04-06T17:37:15;23.32;32.30
74792;SHT30;63319;46.046;17.802;2023-04-06T17:40:18;23.29;32.50
74792;SHT30;63319;46.046;17.802;2023-04-06T17:43:21;23.25;32.37
74792;SHT30;63319;46.046;17.802;2023-04-06T17:46:24;23.19;32.63
74792;SHT30;63319;46.046;17.802;2023-04-06T17:49:27;23.21;32.72
74792;SHT30;63319;46.046;17.802;2023-04-06T17:52:30;23.17;32.78
74792;SHT30;63319;46.046;17.802;2023-04-06T17:55:34;23.12;32.59
74792;SHT30;63319;46.046;17.802;2023-04-06T17:58:38;23.10;32.78
74792;SHT30;63319;46.046;17.802;2023-04-06T18:01:41;23.08;32.68
74792;SHT30;63319;46.046;17.802;2023-04-06T18:04:44;23.04;32.85
74792;SHT30;63319;46.046;17.802;2023-04-06T18:07:47;23.04;32.80
74792;SHT30;63319;46.046;17.802;2023-04-06T18:11:01;23.01;32.77
74792;SHT30;63319;46.046;17.802;2023-04-06T18:14:08;22.97;32.71
74792;SHT30;63319;46.046;17.802;2023-04-06T18:17:14;22.96;32.73
74792;SHT30;63319;46.046;17.802;2023-04-06T18:20:17;22.91;32.87
74792;SHT30;63319;46.046;17.802;2023-04-06T18:23:20;22.90;32.81
74792;SHT30;63319;46.046;17.802;2023-04-06T18:26:23;22.87;32.95
74792;SHT30;63319;46.046;17.802;2023-04-06T18:29:27;22.86;32.85
74792;SHT30;63319;46.046;17.802;2023-04-06T18:32:30;22.84;32.80
74792;SHT30;63319;46.046;17.802;2023-04-06T18:35:33;22.83;32.93
74792;SHT30;63319;46.046;17.802;2023-04-06T18:38:42;22.80;32.75
74792;SHT30;63319;46.046;17.802;2023-04-06T18:41:45;22.79;32.97
74792;SHT30;63319;46.046;17.802;2023-04-06T18:44:48;22.76;33.03
74792;SHT30;63319;46.046;17.802;2023-04-06T18:47:54;22.74;33.06
74792;SHT30;63319;46.046;17.802;2023-04-06T18:50:58;22.74;33.20
74792;SHT30;63319;46.046;17.802;2023-04-06T18:54:03;22.71;33.15
74792;SHT30;63319;46.046;17.802;2023-04-06T18:57:12;22.69;33.10
74792;SHT30;63319;46.046;17.802;2023-04-06T19:00:15;22.70;33.23
74792;SHT30;63319;46.046;17.802;2023-04-06T19:03:18;22.66;33.10
74792;SHT30;63319;46.046;17.802;2023-04-06T19:06:24;22.63;33.11
74792;SHT30;63319;46.046;17.802;2023-04-06T19:09:28;22.62;32.95